createdAt,value
2019-05-02T00:00:37.412Z,0
2019-05-02T00:01:38.765Z,0
2019-05-02T00:02:40.122Z,0
2019-05-02T00:03:42.816Z,0
2019-05-02T00:04:42.775Z,0
2019-05-02T00:05:44.134Z,0
2019-05-02T00:06:45.487Z,0
2019-05-02T00:07:46.838Z,0
2019-05-02T00:08:48.193Z,0
2019-05-02T00:09:50.402Z,0
2019-05-02T00:10:50.858Z,0
2019-05-02T00:11:58.505Z,0
2019-05-02T00:12:53.539Z,0
2019-05-02T00:13:54.885Z,0
2019-05-02T00:14:56.621Z,0
2019-05-02T00:15:57.574Z,0
2019-05-02T00:16:58.959Z,0
2019-05-02T00:18:01.390Z,0
2019-05-02T00:19:01.633Z,0
2019-05-02T00:20:02.979Z,0
2019-05-02T00:21:04.338Z,0
2019-05-02T00:22:05.695Z,0
2019-05-02T00:23:07.045Z,0
2019-05-02T00:24:08.403Z,0
2019-05-02T00:25:11.089Z,0
2019-05-02T00:26:11.076Z,0
2019-05-02T00:27:12.423Z,0
2019-05-02T00:28:14.005Z,0
2019-05-02T00:29:18.972Z,0
2019-05-02T00:30:16.410Z,0
2019-05-02T00:31:17.760Z,0
2019-05-02T00:32:22.550Z,0
2019-05-02T00:33:20.428Z,0
2019-05-02T00:34:21.784Z,0
2019-05-02T00:35:23.135Z,0
2019-05-02T00:36:24.482Z,0
2019-05-02T00:37:26.674Z,0
2019-05-02T00:38:27.162Z,0
2019-05-02T00:39:28.516Z,0
2019-05-02T00:40:29.860Z,0
2019-05-02T00:41:33.118Z,0
2019-05-02T00:42:32.530Z,0
2019-05-02T00:43:34.506Z,0
2019-05-02T00:44:35.403Z,0
2019-05-02T00:45:36.750Z,0
2019-05-02T00:46:38.100Z,0
2019-05-02T00:47:42.269Z,0
2019-05-02T00:48:40.770Z,0
2019-05-02T00:49:42.130Z,0
2019-05-02T00:50:45.342Z,0
2019-05-02T00:51:44.787Z,0
2019-05-02T00:52:46.133Z,0
2019-05-02T00:53:48.286Z,0
2019-05-02T00:54:48.793Z,0
2019-05-02T00:55:50.153Z,0
2019-05-02T00:56:51.504Z,0
2019-05-02T00:57:55.678Z,0
2019-05-02T00:58:54.166Z,0
2019-05-02T00:59:55.521Z,0
2019-05-02T01:00:56.876Z,0
2019-05-02T01:01:59.944Z,0
2019-05-02T01:02:59.534Z,0
2019-05-02T01:04:00.884Z,0
2019-05-02T01:05:03.268Z,0
2019-05-02T01:06:03.550Z,0
2019-05-02T01:07:04.890Z,0
2019-05-02T01:08:06.241Z,0
2019-05-02T01:09:10.984Z,0
2019-05-02T01:10:08.909Z,0
2019-05-02T01:11:10.266Z,0
2019-05-02T01:12:11.611Z,0
2019-05-02T01:13:14.820Z,0
2019-05-02T01:14:14.290Z,0
2019-05-02T01:15:15.656Z,0
2019-05-02T01:16:19.126Z,0
2019-05-02T01:17:18.313Z,0
2019-05-02T01:18:19.690Z,0
2019-05-02T01:19:21.056Z,0
2019-05-02T01:20:27.347Z,0
2019-05-02T01:21:23.788Z,0
2019-05-02T01:22:25.149Z,0
2019-05-02T01:23:27.553Z,0
2019-05-02T01:24:27.850Z,0
2019-05-02T01:25:29.241Z,0
2019-05-02T01:26:30.689Z,0
2019-05-02T01:27:36.122Z,0
2019-05-02T01:28:33.354Z,0
2019-05-02T01:29:34.757Z,0
2019-05-02T01:30:37.120Z,0
2019-05-02T01:31:37.463Z,0
2019-05-02T01:32:38.814Z,0
2019-05-02T01:33:41.687Z,0
2019-05-02T01:34:41.627Z,0
2019-05-02T01:35:42.974Z,0
2019-05-02T01:36:44.333Z,0
2019-05-02T01:37:45.680Z,0
2019-05-02T01:38:47.059Z,0
2019-05-02T01:39:48.408Z,0
2019-05-02T01:40:53.366Z,0
2019-05-02T01:41:51.074Z,0
2019-05-02T01:42:52.424Z,0
2019-05-02T01:43:55.072Z,0
2019-05-02T01:44:55.091Z,0
2019-05-02T01:45:56.444Z,0
2019-05-02T01:46:58.892Z,0
2019-05-02T01:47:59.111Z,0
2019-05-02T01:49:00.455Z,0
2019-05-02T01:50:01.801Z,0
2019-05-02T01:51:04.358Z,0
2019-05-02T01:52:04.464Z,0
2019-05-02T01:53:05.819Z,0
2019-05-02T01:54:10.096Z,0
2019-05-02T01:55:08.491Z,0
2019-05-02T01:56:09.840Z,0
2019-05-02T01:57:11.185Z,0
2019-05-02T01:58:14.861Z,0
2019-05-02T01:59:13.854Z,0
2019-05-02T02:00:15.200Z,0
2019-05-02T02:01:21.308Z,0
2019-05-02T02:02:17.877Z,0
2019-05-02T02:03:19.229Z,0
2019-05-02T02:04:21.036Z,0
2019-05-02T02:05:21.886Z,0
2019-05-02T02:06:23.244Z,0
2019-05-02T02:07:24.590Z,0
2019-05-02T02:08:27.245Z,0
2019-05-02T02:09:27.291Z,0
2019-05-02T02:10:28.648Z,0
2019-05-02T02:11:33.929Z,0
2019-05-02T02:12:31.306Z,0
2019-05-02T02:13:36.390Z,0
2019-05-02T02:14:33.974Z,0
2019-05-02T02:15:35.334Z,0
2019-05-02T02:16:39.314Z,0
2019-05-02T02:17:37.992Z,0
2019-05-02T02:18:39.341Z,0
2019-05-02T02:19:40.760Z,0
2019-05-02T02:20:45.131Z,0
2019-05-02T02:21:43.334Z,0
2019-05-02T02:22:44.676Z,0
2019-05-02T02:23:49.639Z,0
2019-05-02T02:24:47.340Z,0
2019-05-02T02:25:48.676Z,0
2019-05-02T02:26:50.031Z,0
2019-05-02T02:27:55.019Z,0
2019-05-02T02:28:52.732Z,0
2019-05-02T02:29:54.077Z,0
2019-05-02T02:30:57.893Z,0
2019-05-02T02:31:56.775Z,0
2019-05-02T02:33:00.534Z,0
2019-05-02T02:33:59.410Z,0
2019-05-02T02:35:03.506Z,0
2019-05-02T02:36:02.103Z,0
2019-05-02T02:37:05.307Z,0
2019-05-02T02:38:04.777Z,0
2019-05-02T02:39:07.134Z,0
2019-05-02T02:40:07.440Z,0
2019-05-02T02:41:12.980Z,0
2019-05-02T02:42:10.122Z,0
2019-05-02T02:43:32.398Z,0
2019-05-02T02:44:12.772Z,0
2019-05-02T02:45:18.518Z,0
2019-05-02T02:46:15.439Z,0
2019-05-02T02:47:19.135Z,0
2019-05-02T02:48:18.112Z,0
2019-05-02T02:49:21.552Z,0
2019-05-02T02:50:20.771Z,0
2019-05-02T02:51:24.413Z,0
2019-05-02T02:52:23.536Z,0
2019-05-02T02:53:25.723Z,0
2019-05-02T02:54:26.215Z,0
2019-05-02T02:55:27.546Z,0
2019-05-02T02:56:34.287Z,0
2019-05-02T02:57:30.202Z,0
2019-05-02T02:58:31.606Z,0
2019-05-02T02:59:32.869Z,0
2019-05-02T03:00:34.217Z,0
2019-05-02T03:01:35.586Z,0
2019-05-02T03:02:48.052Z,0
2019-05-02T03:03:38.250Z,0
2019-05-02T03:04:44.013Z,0
2019-05-02T03:05:40.947Z,0
2019-05-02T03:06:45.181Z,0
2019-05-02T03:07:43.610Z,0
2019-05-02T03:08:48.726Z,0
2019-05-02T03:09:46.264Z,0
2019-05-02T03:10:47.626Z,0
2019-05-02T03:11:48.974Z,0
2019-05-02T03:12:50.326Z,0
2019-05-02T03:13:53.402Z,0
2019-05-02T03:14:52.991Z,0
2019-05-02T03:15:54.338Z,0
2019-05-02T03:16:55.811Z,0
2019-05-02T03:17:59.991Z,0
2019-05-02T03:18:58.477Z,0
2019-05-02T03:20:01.801Z,0
2019-05-02T03:21:01.238Z,0
2019-05-02T03:22:04.157Z,0
2019-05-02T03:23:03.893Z,0
2019-05-02T03:24:05.795Z,0
2019-05-02T03:25:06.564Z,0
2019-05-02T03:26:14.285Z,0
2019-05-02T03:27:09.231Z,0
2019-05-02T03:28:17.373Z,0
2019-05-02T03:29:11.882Z,0
2019-05-02T03:30:29.212Z,0
2019-05-02T03:31:23.751Z,0
2019-05-02T03:32:30.876Z,0
2019-05-02T03:33:17.188Z,0
2019-05-02T03:34:18.543Z,0
2019-05-02T03:35:30.418Z,0
2019-05-02T03:36:29.607Z,0
2019-05-02T03:37:22.527Z,0
2019-05-02T03:38:31.244Z,0
2019-05-02T03:39:49.203Z,0
2019-05-02T03:40:44.626Z,0
2019-05-02T03:41:45.981Z,0
2019-05-02T03:42:47.641Z,0
2019-05-02T03:43:48.696Z,0
2019-05-02T03:44:57.000Z,0
2019-05-02T03:45:51.352Z,0
2019-05-02T03:46:54.406Z,0
2019-05-02T03:47:54.018Z,0
2019-05-02T03:49:05.788Z,0
2019-05-02T03:49:56.692Z,0
2019-05-02T03:50:58.041Z,0
2019-05-02T03:52:02.762Z,0
2019-05-02T03:53:00.727Z,0
2019-05-02T03:54:49.737Z,5
2019-05-02T03:55:43.036Z,5
2019-05-02T03:56:44.574Z,5
2019-05-02T03:57:45.698Z,5
2019-05-02T03:58:48.560Z,5
2019-05-02T03:59:48.359Z,5
2019-05-02T04:01:00.882Z,11
2019-05-02T04:01:51.050Z,11
2019-05-02T04:02:59.183Z,11
2019-05-02T04:03:53.763Z,11
2019-05-02T04:05:00.740Z,16
2019-05-02T04:05:56.429Z,16
2019-05-02T04:07:01.039Z,16
2019-05-02T04:07:59.100Z,16
2019-05-02T04:09:01.887Z,22
2019-05-02T04:10:01.769Z,22
2019-05-02T04:11:03.121Z,22
2019-05-02T04:12:04.474Z,28
2019-05-02T04:13:05.828Z,28
2019-05-02T04:14:14.907Z,28
2019-05-02T04:15:09.666Z,33
2019-05-02T04:16:15.405Z,33
2019-05-02T04:17:11.149Z,39
2019-05-02T04:18:15.213Z,39
2019-05-02T04:19:13.828Z,39
2019-05-02T04:20:15.188Z,45
2019-05-02T04:21:16.584Z,45
2019-05-02T04:22:17.877Z,45
2019-05-02T04:23:21.404Z,45
2019-05-02T04:24:20.567Z,50
2019-05-02T04:25:27.714Z,50
2019-05-02T04:26:23.282Z,56
2019-05-02T04:27:27.925Z,56
2019-05-02T04:28:26.072Z,61
2019-05-02T04:29:31.245Z,61
2019-05-02T04:30:28.792Z,67
2019-05-02T04:31:31.429Z,67
2019-05-02T04:32:31.487Z,73
2019-05-02T04:33:35.052Z,73
2019-05-02T04:34:34.199Z,73
2019-05-02T04:35:36.358Z,78
2019-05-02T04:36:36.892Z,84
2019-05-02T04:37:41.148Z,90
2019-05-02T04:38:47.415Z,90
2019-05-02T04:39:40.886Z,90
2019-05-02T04:40:46.429Z,95
2019-05-02T04:41:43.584Z,95
2019-05-02T04:42:50.397Z,101
2019-05-02T04:43:54.368Z,106
2019-05-02T04:45:09.530Z,106
2019-05-02T04:45:56.003Z,112
2019-05-02T04:46:50.217Z,118
2019-05-02T04:47:58.428Z,118
2019-05-02T04:48:53.248Z,123
2019-05-02T04:49:54.243Z,123
2019-05-02T04:51:01.957Z,129
2019-05-02T04:52:03.953Z,129
2019-05-02T04:52:59.245Z,135
2019-05-02T04:53:59.585Z,140
2019-05-02T04:55:14.673Z,146
2019-05-02T04:56:06.841Z,146
2019-05-02T04:57:03.711Z,151
2019-05-02T04:58:08.128Z,157
2019-05-02T04:59:13.935Z,163
2019-05-02T05:00:11.489Z,174
2019-05-02T05:01:10.081Z,174
2019-05-02T05:02:10.400Z,180
2019-05-02T05:03:15.646Z,185
2019-05-02T05:04:13.049Z,185
2019-05-02T05:05:17.217Z,191
2019-05-02T05:06:15.774Z,196
2019-05-02T05:07:17.778Z,202
2019-05-02T05:08:26.179Z,208
2019-05-02T05:09:19.767Z,213
2019-05-02T05:10:21.126Z,219
2019-05-02T05:11:24.973Z,219
2019-05-02T05:12:23.821Z,219
2019-05-02T05:13:26.480Z,219
2019-05-02T05:14:31.360Z,219
2019-05-02T05:15:38.315Z,225
2019-05-02T05:16:29.133Z,230
2019-05-02T05:17:32.871Z,236
2019-05-02T05:18:31.814Z,253
2019-05-02T05:19:33.189Z,270
2019-05-02T05:20:37.552Z,292
2019-05-02T05:21:37.404Z,303
2019-05-02T05:22:44.369Z,315
2019-05-02T05:23:38.518Z,315
2019-05-02T05:24:42.340Z,303
2019-05-02T05:25:41.194Z,292
2019-05-02T05:26:43.021Z,275
2019-05-02T05:27:43.933Z,264
2019-05-02T05:28:45.277Z,258
2019-05-02T05:29:48.517Z,253
2019-05-02T05:30:51.878Z,247
2019-05-02T05:31:49.274Z,247
2019-05-02T05:32:50.632Z,247
2019-05-02T05:33:52.004Z,253
2019-05-02T05:34:53.363Z,253
2019-05-02T05:35:54.703Z,258
2019-05-02T05:36:58.200Z,270
2019-05-02T05:37:57.403Z,286
2019-05-02T05:39:02.875Z,309
2019-05-02T05:40:00.080Z,326
2019-05-02T05:41:02.990Z,348
2019-05-02T05:42:02.769Z,382
2019-05-02T05:43:12.141Z,410
2019-05-02T05:44:07.612Z,438
2019-05-02T05:45:09.663Z,455
2019-05-02T05:46:10.701Z,466
2019-05-02T05:47:12.153Z,466
2019-05-02T05:48:13.626Z,461
2019-05-02T05:49:18.416Z,450
2019-05-02T05:50:13.403Z,427
2019-05-02T05:51:19.015Z,410
2019-05-02T05:52:17.971Z,388
2019-05-02T05:53:19.167Z,371
2019-05-02T05:54:18.764Z,354
2019-05-02T05:55:24.085Z,331
2019-05-02T05:56:21.438Z,315
2019-05-02T05:57:22.788Z,292
2019-05-02T05:58:24.158Z,281
2019-05-02T05:59:28.201Z,292
2019-05-02T06:00:27.827Z,298
2019-05-02T06:01:34.333Z,309
2019-05-02T06:02:29.485Z,326
2019-05-02T06:03:33.997Z,343
2019-05-02T06:04:33.335Z,365
2019-05-02T06:05:38.488Z,382
2019-05-02T06:06:34.834Z,393
2019-05-02T06:07:41.823Z,405
2019-05-02T06:08:37.525Z,427
2019-05-02T06:09:38.890Z,455
2019-05-02T06:10:43.870Z,517
2019-05-02T06:11:41.574Z,635
2019-05-02T06:12:42.934Z,658
2019-05-02T06:13:48.807Z,675
2019-05-02T06:14:46.566Z,669
2019-05-02T06:15:47.003Z,663
2019-05-02T06:16:51.763Z,641
2019-05-02T06:17:49.693Z,624
2019-05-02T06:18:51.060Z,652
2019-05-02T06:19:53.473Z,579
2019-05-02T06:20:53.779Z,630
2019-05-02T06:21:55.164Z,646
2019-05-02T06:22:59.970Z,669
2019-05-02T06:23:57.854Z,652
2019-05-02T06:24:59.212Z,483
2019-05-02T06:26:00.585Z,489
2019-05-02T06:27:01.951Z,478
2019-05-02T06:28:05.177Z,478
2019-05-02T06:29:04.635Z,478
2019-05-02T06:30:06.018Z,483
2019-05-02T06:31:07.711Z,489
2019-05-02T06:32:08.720Z,495
2019-05-02T06:33:10.073Z,511
2019-05-02T06:34:11.440Z,540
2019-05-02T06:35:17.003Z,534
2019-05-02T06:36:14.130Z,545
2019-05-02T06:37:15.544Z,551
2019-05-02T06:38:21.437Z,556
2019-05-02T06:39:18.188Z,562
2019-05-02T06:40:19.551Z,568
2019-05-02T06:41:22.204Z,568
2019-05-02T06:42:22.248Z,573
2019-05-02T06:43:23.615Z,590
2019-05-02T06:44:25.456Z,601
2019-05-02T06:45:26.320Z,607
2019-05-02T06:46:28.225Z,607
2019-05-02T06:47:29.048Z,607
2019-05-02T06:48:30.418Z,613
2019-05-02T06:49:32.004Z,624
2019-05-02T06:50:38.259Z,635
2019-05-02T06:51:34.749Z,630
2019-05-02T06:52:36.123Z,646
2019-05-02T06:53:41.419Z,658
2019-05-02T06:54:38.823Z,736
2019-05-02T06:55:40.197Z,646
2019-05-02T06:56:43.042Z,641
2019-05-02T06:57:42.896Z,635
2019-05-02T06:58:44.259Z,635
2019-05-02T06:59:45.630Z,630
2019-05-02T07:00:57.269Z,618
2019-05-02T07:01:52.244Z,596
2019-05-02T07:02:49.779Z,579
2019-05-02T07:03:51.173Z,573
2019-05-02T07:04:54.821Z,573
2019-05-02T07:05:58.560Z,579
2019-05-02T07:06:59.475Z,573
2019-05-02T07:07:56.734Z,573
2019-05-02T07:08:59.650Z,562
2019-05-02T07:09:59.324Z,556
2019-05-02T07:11:01.249Z,551
2019-05-02T07:12:02.018Z,551
2019-05-02T07:13:10.946Z,551
2019-05-02T07:14:13.092Z,551
2019-05-02T07:15:08.201Z,551
2019-05-02T07:16:10.545Z,556
2019-05-02T07:17:08.785Z,568
2019-05-02T07:18:10.629Z,573
2019-05-02T07:19:11.480Z,568
2019-05-02T07:20:12.850Z,568
2019-05-02T07:21:17.750Z,568
2019-05-02T07:22:15.539Z,568
2019-05-02T07:23:18.298Z,568
2019-05-02T07:24:18.248Z,568
2019-05-02T07:25:19.622Z,568
2019-05-02T07:26:22.879Z,551
2019-05-02T07:27:22.358Z,545
2019-05-02T07:28:24.104Z,534
2019-05-02T07:29:25.110Z,523
2019-05-02T07:30:30.147Z,523
2019-05-02T07:31:27.814Z,523
2019-05-02T07:32:29.181Z,528
2019-05-02T07:33:32.296Z,534
2019-05-02T07:34:31.875Z,551
2019-05-02T07:35:33.250Z,562
2019-05-02T07:36:36.546Z,590
2019-05-02T07:37:35.948Z,607
2019-05-02T07:38:37.301Z,624
2019-05-02T07:39:40.983Z,635
2019-05-02T07:40:40.003Z,641
2019-05-02T07:41:41.374Z,652
2019-05-02T07:42:43.175Z,658
2019-05-02T07:43:44.099Z,669
2019-05-02T07:44:45.526Z,680
2019-05-02T07:45:46.929Z,680
2019-05-02T07:46:51.844Z,675
2019-05-02T07:47:49.655Z,675
2019-05-02T07:48:54.455Z,691
2019-05-02T07:49:52.383Z,731
2019-05-02T07:50:54.130Z,776
2019-05-02T07:51:57.493Z,804
2019-05-02T07:52:56.489Z,815
2019-05-02T07:53:57.880Z,821
2019-05-02T07:55:01.126Z,838
2019-05-02T07:56:00.581Z,922
2019-05-02T07:57:02.462Z,849
2019-05-02T07:58:06.998Z,860
2019-05-02T07:59:04.620Z,900
2019-05-02T08:00:05.996Z,990
2019-05-02T08:01:08.048Z,905
2019-05-02T08:02:08.720Z,916
2019-05-02T08:03:10.096Z,967
2019-05-02T08:04:12.929Z,1068
2019-05-02T08:05:15.438Z,1580
2019-05-02T08:06:14.148Z,1321
2019-05-02T08:07:16.233Z,1006
2019-05-02T08:08:16.931Z,922
2019-05-02T08:09:18.291Z,860
2019-05-02T08:10:22.285Z,838
2019-05-02T08:11:21.405Z,838
2019-05-02T08:12:22.877Z,832
2019-05-02T08:13:24.244Z,838
2019-05-02T08:14:29.269Z,860
2019-05-02T08:15:26.936Z,877
2019-05-02T08:16:28.713Z,928
2019-05-02T08:17:29.671Z,1012
2019-05-02T08:18:31.714Z,922
2019-05-02T08:19:32.369Z,939
2019-05-02T08:20:33.750Z,945
2019-05-02T08:21:35.117Z,939
2019-05-02T08:22:36.479Z,939
2019-05-02T08:23:37.857Z,922
2019-05-02T08:24:39.316Z,826
2019-05-02T08:25:41.452Z,804
2019-05-02T08:26:41.901Z,849
2019-05-02T08:27:43.261Z,1254
2019-05-02T08:28:47.036Z,1265
2019-05-02T08:29:45.980Z,1485
2019-05-02T08:30:47.351Z,2036
2019-05-02T08:31:48.719Z,2070
2019-05-02T08:32:50.095Z,2126
2019-05-02T08:33:51.505Z,1996
2019-05-02T08:34:53.527Z,2075
2019-05-02T08:35:54.466Z,2115
2019-05-02T08:36:58.799Z,2182
2019-05-02T08:37:57.501Z,2154
2019-05-02T08:38:59.062Z,2160
2019-05-02T08:40:00.615Z,2013
2019-05-02T08:41:02.176Z,2008
2019-05-02T08:42:04.333Z,2075
2019-05-02T08:43:08.963Z,2075
2019-05-02T08:44:07.277Z,2154
2019-05-02T08:45:08.742Z,2086
2019-05-02T08:46:14.350Z,2086
2019-05-02T08:47:18.682Z,2086
2019-05-02T08:48:13.239Z,2041
2019-05-02T08:49:18.632Z,2025
2019-05-02T08:50:16.157Z,2075
2019-05-02T08:51:17.685Z,1985
2019-05-02T08:52:19.197Z,1980
2019-05-02T08:53:22.218Z,2041
2019-05-02T08:54:22.152Z,2030
2019-05-02T08:55:23.675Z,2086
2019-05-02T08:56:25.205Z,2221
2019-05-02T08:57:30.061Z,2165
2019-05-02T08:58:28.185Z,2199
2019-05-02T08:59:29.677Z,2306
2019-05-02T09:00:32.081Z,2368
2019-05-02T09:01:35.179Z,2351
2019-05-02T09:02:41.626Z,2351
2019-05-02T09:03:54.677Z,2311
2019-05-02T09:04:39.954Z,2385
2019-05-02T09:05:45.418Z,2345
2019-05-02T09:06:42.899Z,2328
2019-05-02T09:07:44.375Z,2306
2019-05-02T09:08:46.131Z,2323
2019-05-02T09:09:47.343Z,2289
2019-05-02T09:10:48.864Z,2216
2019-05-02T09:12:03.322Z,2278
2019-05-02T09:12:52.088Z,2227
2019-05-02T09:13:53.354Z,2030
2019-05-02T09:14:54.987Z,2255
2019-05-02T09:15:56.491Z,2435
2019-05-02T09:17:00.284Z,2441
2019-05-02T09:17:59.422Z,2469
2019-05-02T09:19:02.639Z,2396
2019-05-02T09:20:05.109Z,2525
2019-05-02T09:21:03.867Z,2520
2019-05-02T09:22:07.609Z,2435
2019-05-02T09:23:06.967Z,2351
2019-05-02T09:24:12.469Z,2328
2019-05-02T09:25:09.969Z,2238
2019-05-02T09:26:11.922Z,2255
2019-05-02T09:27:12.900Z,2323
2019-05-02T09:28:17.144Z,2328
2019-05-02T09:29:15.923Z,2221
2019-05-02T09:30:21.857Z,2295
2019-05-02T09:31:18.882Z,2238
2019-05-02T09:32:22.754Z,1991
2019-05-02T09:33:22.643Z,1805
2019-05-02T09:34:26.698Z,1946
2019-05-02T09:35:24.846Z,2435
2019-05-02T09:36:26.392Z,2655
2019-05-02T09:37:27.919Z,2677
2019-05-02T09:38:29.431Z,2649
2019-05-02T09:39:34.703Z,2677
2019-05-02T09:40:32.392Z,2643
2019-05-02T09:41:36.196Z,2520
2019-05-02T09:42:35.411Z,2475
2019-05-02T09:43:38.988Z,2475
2019-05-02T09:44:38.380Z,2508
2019-05-02T09:45:41.265Z,2452
2019-05-02T09:46:42.735Z,2441
2019-05-02T09:48:44.996Z,2407
2019-05-02T09:49:49.186Z,2491
2019-05-02T09:50:48.342Z,2548
2019-05-02T09:51:50.470Z,2452
2019-05-02T09:52:52.395Z,2244
2019-05-02T09:53:56.938Z,2368
2019-05-02T09:55:33.673Z,2334
2019-05-02T09:56:35.045Z,2475
2019-05-02T09:58:10.514Z,2446
2019-05-02T09:59:24.379Z,2508
2019-05-02T10:00:41.797Z,2553
2019-05-02T10:01:42.849Z,2109
2019-05-02T10:03:15.444Z,1850
2019-05-02T10:04:16.818Z,2058
2019-05-02T10:05:49.400Z,1980
2019-05-02T10:06:52.404Z,2171
2019-05-02T10:07:52.592Z,2278
2019-05-02T10:08:53.511Z,2272
2019-05-02T10:09:57.608Z,2182
2019-05-02T10:10:56.228Z,2311
2019-05-02T10:11:57.616Z,2328
2019-05-02T10:12:58.992Z,2407
2019-05-02T10:14:02.351Z,2368
2019-05-02T10:15:02.364Z,2418
2019-05-02T10:16:03.044Z,2469
2019-05-02T10:17:07.182Z,2548
2019-05-02T10:18:10.537Z,2705
2019-05-02T10:19:10.652Z,2851
2019-05-02T10:20:08.471Z,2863
2019-05-02T10:21:12.799Z,2655
2019-05-02T10:22:12.277Z,2649
2019-05-02T10:23:19.456Z,2666
2019-05-02T10:24:13.841Z,2379
2019-05-02T10:25:15.227Z,2154
2019-05-02T10:26:20.237Z,2081
2019-05-02T10:27:17.952Z,2379
2019-05-02T10:28:19.321Z,2385
2019-05-02T10:29:27.682Z,2480
2019-05-02T10:30:22.037Z,2570
2019-05-02T10:31:27.413Z,2632
2019-05-02T10:32:24.757Z,2671
2019-05-02T10:33:28.028Z,2655
2019-05-02T10:34:27.482Z,2880
2019-05-02T10:35:36.514Z,2812
2019-05-02T10:36:32.386Z,2846
2019-05-02T10:37:38.129Z,2863
2019-05-02T10:38:32.876Z,2739
2019-05-02T10:39:37.705Z,2728
2019-05-02T10:40:35.612Z,2688
2019-05-02T10:41:39.378Z,2559
2019-05-02T10:42:38.336Z,2328
2019-05-02T10:43:39.711Z,2255
2019-05-02T10:44:42.594Z,2407
2019-05-02T10:45:42.518Z,2683
2019-05-02T10:46:43.774Z,2745
2019-05-02T10:47:45.181Z,2598
2019-05-02T10:48:46.556Z,2610
2019-05-02T10:49:47.943Z,2508
2019-05-02T10:50:49.316Z,2598
2019-05-02T10:51:51.877Z,2660
2019-05-02T10:52:52.670Z,2806
2019-05-02T10:53:56.346Z,2829
2019-05-02T10:54:54.712Z,2767
2019-05-02T10:55:56.102Z,2784
2019-05-02T10:56:57.472Z,2756
2019-05-02T10:57:58.857Z,2880
2019-05-02T10:59:02.152Z,2666
2019-05-02T11:00:03.077Z,2565
2019-05-02T11:01:02.917Z,2565
2019-05-02T11:02:04.298Z,2497
2019-05-02T11:03:05.688Z,2176
2019-05-02T11:04:07.102Z,2176
2019-05-02T11:05:08.478Z,2250
2019-05-02T11:06:09.861Z,2244
2019-05-02T11:07:11.950Z,2441
2019-05-02T11:08:12.597Z,2660
2019-05-02T11:09:16.693Z,2520
2019-05-02T11:10:15.333Z,2250
2019-05-02T11:11:16.712Z,2598
2019-05-02T11:12:23.946Z,2553
2019-05-02T11:13:19.448Z,1428
2019-05-02T11:14:22.442Z,1755
2019-05-02T11:15:22.163Z,2407
2019-05-02T11:16:23.557Z,2548
2019-05-02T11:17:24.937Z,2559
2019-05-02T11:18:39.549Z,2233
2019-05-02T11:19:27.650Z,2165
2019-05-02T11:20:29.028Z,2401
2019-05-02T11:21:32.049Z,2570
2019-05-02T11:22:32.161Z,2626
2019-05-02T11:23:33.252Z,2531
2019-05-02T11:24:34.587Z,2491
2019-05-02T11:25:35.962Z,2435
2019-05-02T11:26:37.334Z,2514
2019-05-02T11:27:38.714Z,2503
2019-05-02T11:28:41.546Z,2480
2019-05-02T11:29:42.517Z,2390
2019-05-02T11:30:42.791Z,2385
2019-05-02T11:31:44.171Z,2272
2019-05-02T11:32:45.542Z,1856
2019-05-02T11:33:46.946Z,1226
2019-05-02T11:34:48.347Z,1186
2019-05-02T11:35:51.521Z,1355
2019-05-02T11:36:52.518Z,2306
2019-05-02T11:37:52.391Z,1890
2019-05-02T11:39:01.972Z,2289
2019-05-02T11:40:00.349Z,2227
2019-05-02T11:40:56.477Z,2160
2019-05-02T11:41:57.906Z,1198
2019-05-02T11:43:04.926Z,1400
2019-05-02T11:44:02.752Z,1209
2019-05-02T11:45:02.676Z,1215
2019-05-02T11:46:07.284Z,2008
2019-05-02T11:47:04.563Z,2210
2019-05-02T11:48:09.240Z,2531
2019-05-02T11:49:07.299Z,2548
2019-05-02T11:50:08.673Z,2418
2019-05-02T11:51:14.823Z,2424
2019-05-02T11:52:11.854Z,2390
2019-05-02T11:53:23.280Z,2446
2019-05-02T11:54:14.100Z,2458
2019-05-02T11:55:18.964Z,2188
2019-05-02T11:56:16.832Z,1642
2019-05-02T11:57:21.279Z,1220
2019-05-02T11:58:19.572Z,1119
2019-05-02T11:59:27.639Z,1063
2019-05-02T12:00:22.287Z,984
2019-05-02T12:01:35.513Z,1057
2019-05-02T12:02:25.046Z,1417
2019-05-02T12:03:28.164Z,1603
2019-05-02T12:04:27.763Z,1316
2019-05-02T12:05:31.856Z,1327
2019-05-02T12:06:30.471Z,1181
2019-05-02T12:07:32.437Z,1102
2019-05-02T12:08:33.208Z,1074
2019-05-02T12:09:38.779Z,1108
2019-05-02T12:10:42.051Z,1226
2019-05-02T12:11:41.815Z,1614
2019-05-02T12:12:43.003Z,1456
2019-05-02T12:13:47.245Z,1468
2019-05-02T12:14:45.532Z,1254
2019-05-02T12:15:46.906Z,1226
2019-05-02T12:16:48.278Z,1473
2019-05-02T12:17:51.560Z,1726
2019-05-02T12:18:50.996Z,1800
2019-05-02T12:19:52.424Z,1822
2019-05-02T12:20:53.748Z,1800
2019-05-02T12:21:55.173Z,1710
2019-05-02T12:22:56.533Z,1608
2019-05-02T12:23:57.922Z,1530
2019-05-02T12:24:59.329Z,1552
2019-05-02T12:26:02.646Z,1603
2019-05-02T12:27:02.552Z,1608
2019-05-02T12:28:03.351Z,1569
2019-05-02T12:29:04.728Z,1501
2019-05-02T12:30:06.099Z,1530
2019-05-02T12:31:07.963Z,1575
2019-05-02T12:32:08.818Z,1608
2019-05-02T12:33:12.013Z,1670
2019-05-02T12:34:12.028Z,1693
2019-05-02T12:35:12.893Z,1665
2019-05-02T12:36:14.259Z,1642
2019-05-02T12:37:15.644Z,1631
2019-05-02T12:38:17.017Z,1620
2019-05-02T12:39:18.399Z,1591
2019-05-02T12:40:21.616Z,1665
2019-05-02T12:41:24.554Z,1546
2019-05-02T12:42:23.981Z,1681
2019-05-02T12:43:23.807Z,1755
2019-05-02T12:44:25.192Z,1732
2019-05-02T12:45:26.564Z,1749
2019-05-02T12:46:28.565Z,1726
2019-05-02T12:47:29.273Z,1743
2019-05-02T12:48:32.681Z,1732
2019-05-02T12:49:32.444Z,1715
2019-05-02T12:50:33.342Z,1715
2019-05-02T12:51:34.728Z,1704
2019-05-02T12:52:36.098Z,1648
2019-05-02T12:53:37.479Z,1563
2019-05-02T12:54:38.864Z,1383
2019-05-02T12:55:41.953Z,1395
2019-05-02T12:56:41.861Z,1485
2019-05-02T12:57:43.073Z,1603
2019-05-02T12:58:44.289Z,1659
2019-05-02T12:59:45.689Z,1603
2019-05-02T13:00:47.069Z,1558
2019-05-02T13:01:48.449Z,1558
2019-05-02T13:02:49.823Z,1468
2019-05-02T13:03:51.772Z,1344
2019-05-02T13:04:52.699Z,1372
2019-05-02T13:05:53.881Z,1496
2019-05-02T13:06:55.286Z,1479
2019-05-02T13:07:56.654Z,1501
2019-05-02T13:08:58.029Z,1535
2019-05-02T13:09:59.415Z,1541
2019-05-02T13:11:02.026Z,1524
2019-05-02T13:12:02.817Z,1501
2019-05-02T13:13:03.483Z,1428
2019-05-02T13:14:04.855Z,1338
2019-05-02T13:15:06.233Z,1456
2019-05-02T13:16:07.640Z,1411
2019-05-02T13:17:09.008Z,1440
2019-05-02T13:18:12.332Z,1620
2019-05-02T13:19:11.946Z,1687
2019-05-02T13:20:13.105Z,1676
2019-05-02T13:21:16.893Z,1546
2019-05-02T13:22:15.807Z,1513
2019-05-02T13:23:17.195Z,1507
2019-05-02T13:24:18.604Z,1524
2019-05-02T13:25:20.003Z,1423
2019-05-02T13:26:26.569Z,1456
2019-05-02T13:27:22.879Z,1546
2019-05-02T13:28:25.683Z,1569
2019-05-02T13:29:25.509Z,1496
2019-05-02T13:30:26.890Z,1451
2019-05-02T13:31:28.295Z,1479
2019-05-02T13:32:31.950Z,1406
2019-05-02T13:33:32.449Z,1518
2019-05-02T13:34:32.399Z,1591
2019-05-02T13:35:34.400Z,1591
2019-05-02T13:36:35.176Z,1546
2019-05-02T13:37:36.553Z,1265
2019-05-02T13:38:37.930Z,1046
2019-05-02T13:39:39.304Z,1102
2019-05-02T13:40:41.820Z,1552
2019-05-02T13:41:42.815Z,1642
2019-05-02T13:42:43.384Z,1434
2019-05-02T13:43:44.795Z,1608
2019-05-02T13:44:46.178Z,1586
2019-05-02T13:45:47.576Z,1535
2019-05-02T13:46:48.945Z,1620
2019-05-02T13:47:51.816Z,1434
2019-05-02T13:48:52.527Z,1378
2019-05-02T13:49:56.395Z,1665
2019-05-02T13:50:54.423Z,1625
2019-05-02T13:51:55.798Z,1440
2019-05-02T13:52:58.019Z,1237
2019-05-02T13:53:58.523Z,1113
2019-05-02T13:55:01.626Z,1203
2019-05-02T13:56:02.068Z,1524
2019-05-02T13:57:03.092Z,1648
2019-05-02T13:58:03.922Z,1580
2019-05-02T13:59:05.310Z,1378
2019-05-02T14:00:06.695Z,1389
2019-05-02T14:01:08.070Z,1226
2019-05-02T14:02:09.440Z,995
2019-05-02T14:03:11.904Z,916
2019-05-02T14:04:15.042Z,883
2019-05-02T14:05:13.548Z,984
2019-05-02T14:06:14.911Z,883
2019-05-02T14:07:17.488Z,961
2019-05-02T14:08:17.643Z,973
2019-05-02T14:09:20.136Z,1035
2019-05-02T14:10:22.687Z,1181
2019-05-02T14:11:21.738Z,1265
2019-05-02T14:12:23.117Z,1389
2019-05-02T14:13:24.488Z,1411
2019-05-02T14:14:25.886Z,1485
2019-05-02T14:15:27.254Z,1569
2019-05-02T14:16:28.644Z,1496